logo
Search for airport 
image banner adimage banner adimage banner ad
image banner ad

SCOM - Olmue

Located in Olmue, Chile

ICAO - SCOM, IATA -

Data provided by Airmate  

General information

Coordinates: S32°59'51" W71°10'20"
Elevation is 396 feet MSL.
Magnetic variation is 1° East
View others Airports in Valparaíso

Operational data

Special qualification required
Current time UTC:
Current local time:
Weather at : SCVM - Vina Del Mar ( 29 km )
METAR: SCVM 231700Z 34006KT 300V030 9999 BKN026 14/08 Q1022
TAF: TAF SCVM 231600Z 2318/2418 30010KT 9999 SCT025 TX14/2319Z TN04/2410Z BECMG 2401/2403 14004KT CAVOK BECMG 2416/2418 30010KT
View NOTAMs / SUP AIP / TFR affecting this airport [VIEW]
Communications frequencies: [VIEW]

Runways:

RWY identifierQFULength (ft)Width (ft)SurfaceLDA (ft)
0556°164950DIRT
23236°164950DIRT

Airport contact information

Address: Olmue Chile

Satellite view of SCOM